createdAt,value
2019-04-30T04:34:36.202Z,10.80
2019-04-30T04:40:04.939Z,10.80
2019-04-30T04:45:24.332Z,10.80
2019-04-30T04:50:39.801Z,11.00
2019-04-30T04:55:50.771Z,10.90
2019-04-30T05:01:03.380Z,11.00
2019-04-30T05:06:22.219Z,11.10
2019-04-30T05:11:52.570Z,11.10
2019-04-30T05:16:58.655Z,11.20
2019-04-30T05:22:20.865Z,11.30
2019-04-30T05:28:03.062Z,11.30
2019-04-30T05:33:23.500Z,11.10
2019-04-30T05:39:13.477Z,11.10
2019-04-30T05:44:29.992Z,11.10
2019-04-30T05:49:49.944Z,10.90
2019-04-30T05:55:31.797Z,11.00
2019-04-30T06:00:42.351Z,11.20
2019-04-30T06:06:12.543Z,11.20
2019-04-30T06:11:40.018Z,11.30
2019-04-30T06:17:05.952Z,11.40
2019-04-30T06:22:28.784Z,11.50
2019-04-30T06:27:41.011Z,11.40
2019-04-30T06:32:46.116Z,11.50
2019-04-30T06:37:50.651Z,11.70
2019-04-30T06:42:55.010Z,11.50
2019-04-30T06:48:01.279Z,11.30
2019-04-30T06:53:05.636Z,11.70
2019-04-30T06:58:15.044Z,11.80
2019-04-30T07:03:19.025Z,12.00
2019-04-30T07:08:51.985Z,11.90
2019-04-30T07:13:52.505Z,12.10
2019-04-30T07:18:58.611Z,12.30
2019-04-30T07:24:03.468Z,12.60
2019-04-30T07:29:09.656Z,12.90
2019-04-30T07:34:14.648Z,12.90
2019-04-30T07:39:19.335Z,13.10
2019-04-30T07:44:33.709Z,13.30
2019-04-30T07:49:46.754Z,13.30
2019-04-30T07:54:39.592Z,13.20
2019-04-30T07:59:44.824Z,13.50
2019-04-30T08:05:04.066Z,13.80
2019-04-30T08:10:10.645Z,14.20
2019-04-30T08:15:15.314Z,14.50
2019-04-30T08:20:20.046Z,14.90
2019-04-30T08:47:33.928Z,15.60
2019-04-30T08:52:41.377Z,15.70
2019-04-30T08:57:47.281Z,15.80
2019-04-30T09:02:53.842Z,16.10
2019-04-30T09:07:59.808Z,16.20
2019-04-30T09:13:11.003Z,16.30
2019-04-30T09:19:01.227Z,16.60
2019-04-30T09:24:09.506Z,16.70
2019-04-30T09:29:20.240Z,17.00
2019-04-30T09:34:31.530Z,17.10
2019-04-30T09:39:36.959Z,17.20
2019-04-30T09:44:49.213Z,17.30
2019-04-30T09:49:59.603Z,17.60
2019-04-30T09:55:05.372Z,17.60
2019-04-30T10:00:50.392Z,18.00
2019-04-30T10:06:08.789Z,18.20
2019-04-30T10:11:28.265Z,18.30
2019-04-30T10:16:49.614Z,18.40
2019-04-30T10:21:55.333Z,18.70
2019-04-30T10:27:02.720Z,18.90
